createdAt,value
2019-05-15T00:01:28.390Z,77.90
2019-05-15T00:03:55.673Z,78.20
2019-05-15T00:06:23.325Z,77.50
2019-05-15T00:08:50.967Z,78.10
2019-05-15T00:11:19.272Z,78.60
2019-05-15T00:13:48.371Z,79.30
2019-05-15T00:16:18.056Z,79.40
2019-05-15T00:18:45.569Z,79.50
2019-05-15T00:21:13.438Z,77.10
2019-05-15T00:23:41.091Z,76.20
2019-05-15T00:26:09.405Z,76.70
2019-05-15T00:28:38.883Z,76.80
2019-05-15T00:31:09.040Z,74.40
2019-05-15T00:33:36.376Z,74.10
2019-05-15T00:36:05.258Z,74.00
2019-05-15T00:38:32.991Z,74.10
2019-05-15T00:41:00.739Z,73.40
2019-05-15T00:43:29.144Z,73.40
2019-05-15T00:45:58.533Z,72.40
2019-05-15T00:48:29.042Z,72.00
2019-05-15T00:50:55.956Z,71.80
2019-05-15T00:53:23.667Z,71.50
2019-05-15T00:55:51.323Z,70.90
2019-05-15T00:58:19.899Z,71.50
2019-05-15T01:00:48.667Z,71.00
2019-05-15T01:03:18.230Z,71.10
2019-05-15T01:05:48.049Z,71.50
2019-05-15T01:08:18.933Z,71.40
2019-05-15T01:10:46.103Z,71.10
2019-05-15T01:13:13.878Z,70.30
2019-05-15T01:15:41.768Z,71.20
2019-05-15T01:18:09.687Z,70.00
2019-05-15T01:20:39.094Z,70.70
2019-05-15T01:23:08.887Z,70.50
2019-05-15T01:25:38.654Z,71.90
2019-05-15T01:28:06.126Z,70.70
2019-05-15T01:30:33.793Z,70.80
2019-05-15T01:33:01.444Z,70.80
2019-05-15T01:35:29.235Z,70.10
2019-05-15T01:37:58.601Z,70.80
2019-05-15T01:40:28.764Z,70.50
2019-05-15T01:42:58.160Z,70.70
2019-05-15T01:45:25.478Z,70.80
2019-05-15T01:47:53.131Z,71.20
2019-05-15T01:50:21.218Z,71.40
2019-05-15T01:52:48.870Z,71.60
2019-05-15T01:55:18.167Z,71.80
2019-05-15T01:57:46.043Z,71.60
2019-05-15T02:00:14.030Z,72.10
2019-05-15T02:02:41.704Z,72.20
2019-05-15T02:05:09.430Z,71.90
2019-05-15T02:07:39.148Z,72.00
2019-05-15T02:10:08.911Z,72.10
2019-05-15T02:12:38.633Z,72.80
2019-05-15T02:15:08.370Z,72.60
2019-05-15T02:17:35.503Z,72.00
2019-05-15T02:20:03.664Z,72.30
2019-05-15T02:22:31.316Z,72.30
2019-05-15T02:24:59.324Z,72.70
2019-05-15T02:27:28.835Z,72.40
2019-05-15T02:30:12.970Z,72.00
2019-05-15T02:32:29.888Z,72.20
2019-05-15T02:34:58.865Z,72.90
2019-05-15T02:37:24.963Z,72.00
2019-05-15T02:39:53.059Z,72.50
2019-05-15T02:42:20.955Z,72.60
2019-05-15T02:44:49.989Z,72.60
2019-05-15T02:47:19.865Z,72.00
2019-05-15T02:49:48.588Z,72.70
2019-05-15T02:52:19.634Z,72.80
2019-05-15T02:54:49.508Z,72.10
2019-05-15T02:57:15.356Z,72.80
2019-05-15T02:59:43.015Z,73.00
2019-05-15T03:02:10.689Z,72.70
2019-05-15T03:04:40.050Z,73.30
2019-05-15T03:07:09.579Z,72.80
2019-05-15T03:09:39.928Z,73.30
2019-05-15T03:12:09.067Z,73.00
2019-05-15T03:14:39.605Z,73.60
2019-05-15T03:17:09.524Z,73.90
2019-05-15T03:19:38.994Z,72.30
2019-05-15T03:22:05.032Z,72.60
2019-05-15T03:24:32.745Z,73.20
2019-05-15T03:27:00.786Z,72.80
2019-05-15T03:29:29.160Z,71.70
2019-05-15T03:32:09.353Z,72.90
2019-05-15T03:34:35.283Z,73.10
2019-05-15T03:36:55.985Z,72.10
2019-05-15T03:39:23.741Z,72.20
2019-05-15T03:41:52.153Z,72.40
2019-05-15T03:44:20.040Z,73.10
2019-05-15T03:46:49.141Z,72.70
2019-05-15T03:49:19.682Z,73.00
2019-05-15T03:51:49.722Z,72.80
2019-05-15T03:54:18.713Z,72.30
2019-05-15T03:56:45.337Z,72.20
2019-05-15T03:59:13.073Z,72.20
2019-05-15T04:01:43.750Z,71.30
2019-05-15T04:04:10.275Z,71.80
2019-05-15T04:06:39.080Z,71.50
2019-05-15T04:09:09.605Z,72.10
2019-05-15T04:11:38.842Z,71.50
2019-05-15T04:14:06.129Z,72.10
2019-05-15T04:16:33.850Z,72.10
2019-05-15T04:19:01.532Z,72.70
2019-05-15T04:21:30.380Z,72.50
2019-05-15T04:23:58.839Z,71.80
2019-05-15T04:26:28.668Z,72.50
2019-05-15T04:28:59.883Z,72.10
2019-05-15T04:31:25.867Z,72.30
2019-05-15T04:33:53.880Z,72.50
2019-05-15T04:36:21.534Z,72.20
2019-05-15T04:38:50.035Z,72.30
2019-05-15T04:41:19.784Z,73.00
2019-05-15T04:43:49.493Z,71.50
2019-05-15T04:46:19.677Z,71.70
2019-05-15T04:48:49.875Z,72.00
2019-05-15T04:51:19.020Z,72.20
2019-05-15T04:53:49.912Z,71.00
2019-05-15T04:56:15.696Z,71.50
2019-05-15T04:58:43.733Z,72.00
2019-05-15T05:01:11.381Z,70.50
2019-05-15T05:03:39.700Z,70.60
2019-05-15T05:06:09.793Z,70.40
2019-05-15T05:08:39.731Z,69.50
2019-05-15T05:11:09.419Z,69.20
2019-05-15T05:13:38.958Z,69.80
2019-05-15T05:16:05.556Z,70.40
2019-05-15T05:18:33.419Z,69.00
2019-05-15T05:21:01.117Z,69.80
2019-05-15T05:23:28.763Z,69.70
2019-05-15T05:25:58.150Z,69.30
2019-05-15T05:28:26.059Z,69.90
2019-05-15T05:30:53.787Z,68.70
2019-05-15T05:33:21.795Z,69.00
2019-05-15T05:35:49.524Z,68.50
2019-05-15T05:38:19.224Z,69.00
2019-05-15T05:40:49.165Z,68.60
2019-05-15T05:43:18.417Z,69.00
2019-05-15T05:45:45.710Z,68.40
2019-05-15T05:48:13.400Z,68.90
2019-05-15T05:50:44.427Z,68.90
2019-05-15T05:53:12.411Z,69.10
2019-05-15T05:55:40.127Z,68.30
2019-05-15T05:58:08.206Z,68.70
2019-05-15T06:00:39.196Z,68.90
2019-05-15T06:03:08.677Z,69.80
2019-05-15T06:05:38.728Z,69.50
2019-05-15T06:08:08.059Z,69.90
2019-05-15T06:10:38.376Z,69.90
2019-05-15T06:13:08.522Z,70.40
2019-05-15T06:15:35.203Z,70.30
2019-05-15T06:18:03.019Z,70.80
2019-05-15T06:20:30.766Z,70.10
2019-05-15T06:22:58.489Z,70.60
2019-05-15T06:25:30.263Z,71.40
2019-05-15T06:27:58.217Z,70.50
2019-05-15T06:30:30.259Z,71.50
2019-05-15T06:33:05.732Z,71.20
2019-05-15T06:35:25.891Z,71.50
2019-05-15T06:37:53.666Z,72.40
2019-05-15T06:40:21.504Z,71.40
2019-05-15T06:42:49.489Z,71.80
2019-05-15T06:45:18.894Z,72.30
2019-05-15T06:47:48.228Z,70.80
2019-05-15T06:50:17.988Z,71.40
2019-05-15T06:52:45.659Z,72.10
2019-05-15T06:55:13.492Z,71.10
2019-05-15T06:57:41.218Z,71.70
2019-05-15T07:00:09.244Z,71.60
2019-05-15T07:02:38.281Z,72.30
2019-05-15T07:05:07.899Z,72.80
2019-05-15T07:07:37.950Z,73.00
2019-05-15T07:10:08.710Z,73.20
2019-05-15T07:15:04.830Z,73.00
2019-05-15T07:17:32.764Z,73.60
2019-05-15T07:20:00.475Z,72.80
2019-05-15T07:22:28.889Z,72.70
2019-05-15T07:24:58.233Z,73.80
2019-05-15T07:27:28.344Z,73.90
2019-05-15T07:29:55.538Z,76.30
2019-05-15T07:32:24.328Z,75.30
2019-05-15T07:34:52.008Z,76.20
2019-05-15T07:37:19.695Z,75.40
2019-05-15T07:39:48.793Z,75.80
2019-05-15T07:42:18.514Z,76.10
2019-05-15T07:44:48.159Z,77.20
2019-05-15T07:47:15.433Z,77.00
2019-05-15T07:49:43.453Z,77.50
2019-05-15T07:54:38.534Z,77.50
2019-05-15T07:57:06.299Z,77.80
2019-05-15T07:59:34.299Z,77.50
2019-05-15T08:02:02.009Z,76.20
2019-05-15T08:04:32.881Z,76.20
2019-05-15T08:06:59.422Z,75.80
2019-05-15T08:09:28.368Z,76.50
2019-05-15T08:11:56.206Z,75.30
2019-05-15T08:14:23.990Z,75.90
2019-05-15T08:16:51.688Z,75.90
2019-05-15T08:19:19.363Z,77.00
2019-05-15T08:21:51.629Z,76.10
2019-05-15T08:24:18.765Z,76.20
2019-05-15T08:26:46.521Z,77.10
2019-05-15T08:31:44.323Z,76.10
2019-05-15T08:34:16.171Z,76.80
2019-05-15T08:36:41.483Z,76.70
2019-05-15T08:39:09.188Z,76.90
2019-05-15T08:41:38.863Z,76.40
2019-05-15T08:44:08.749Z,77.00
2019-05-15T08:46:38.557Z,77.20
2019-05-15T08:49:06.044Z,77.60
2019-05-15T08:51:34.008Z,76.40
2019-05-15T08:54:01.646Z,76.70
2019-05-15T08:56:29.333Z,76.70
2019-05-15T08:58:58.047Z,75.40
2019-05-15T09:01:28.621Z,76.00
2019-05-15T09:03:58.039Z,75.90
2019-05-15T09:06:25.243Z,75.30
2019-05-15T09:08:53.082Z,75.80
2019-05-15T09:11:20.988Z,74.80
2019-05-15T09:13:53.891Z,75.60
2019-05-15T09:16:18.585Z,75.60
2019-05-15T09:18:48.494Z,75.20
2019-05-15T09:21:15.854Z,76.10
2019-05-15T09:23:43.489Z,76.30
2019-05-15T09:26:11.257Z,75.90
2019-05-15T09:28:39.320Z,75.50
2019-05-15T09:31:08.385Z,76.50
2019-05-15T09:33:38.675Z,75.20
2019-05-15T09:36:06.212Z,74.80
2019-05-15T09:38:33.867Z,75.30
2019-05-15T09:41:02.761Z,76.40
2019-05-15T09:43:30.662Z,75.90
2019-05-15T09:45:58.543Z,76.40
2019-05-15T09:48:28.600Z,75.60
2019-05-15T09:50:55.813Z,75.50
2019-05-15T09:53:23.749Z,75.20
2019-05-15T09:55:51.560Z,76.00
2019-05-15T09:58:20.613Z,76.20
2019-05-15T10:00:51.892Z,76.10
2019-05-15T10:03:19.099Z,75.20
2019-05-15T10:08:16.166Z,75.20
2019-05-15T10:10:43.938Z,75.50
2019-05-15T10:13:11.648Z,75.00
2019-05-15T10:15:39.284Z,75.40
2019-05-15T10:18:09.918Z,76.20
2019-05-15T10:20:37.960Z,76.00
2019-05-15T10:23:08.565Z,76.10
2019-05-15T10:25:35.316Z,75.80
2019-05-15T10:28:03.109Z,77.20
2019-05-15T10:30:30.752Z,75.60
2019-05-15T10:32:58.664Z,76.50
2019-05-15T10:35:29.245Z,77.10
2019-05-15T10:37:55.781Z,76.40
2019-05-15T10:40:23.500Z,76.30
2019-05-15T10:42:51.185Z,76.60
2019-05-15T10:45:19.398Z,76.90
2019-05-15T10:47:49.664Z,78.50
2019-05-15T10:50:18.955Z,77.80
2019-05-15T10:52:48.745Z,78.70
2019-05-15T10:57:44.524Z,79.10
2019-05-15T11:00:14.149Z,79.40
2019-05-15T11:02:41.980Z,80.10
2019-05-15T11:05:10.607Z,79.90
2019-05-15T11:07:39.401Z,79.40
2019-05-15T11:10:08.587Z,80.10
2019-05-15T11:12:36.785Z,81.00
2019-05-15T11:15:05.598Z,81.40
2019-05-15T11:17:33.423Z,83.10
2019-05-15T11:20:01.098Z,83.60
2019-05-15T11:22:29.845Z,84.50
2019-05-15T11:24:59.443Z,85.10
2019-05-15T11:27:27.919Z,86.80
2019-05-15T11:29:58.545Z,87.50
2019-05-15T11:32:29.190Z,86.90
2019-05-15T11:34:58.246Z,87.80
2019-05-15T11:39:54.615Z,87.70
2019-05-15T11:42:22.658Z,89.20
2019-05-15T11:44:53.211Z,89.50
2019-05-15T11:47:19.726Z,89.20
2019-05-15T11:49:47.492Z,90.40
2019-05-15T11:52:15.217Z,90.20
2019-05-15T11:54:42.929Z,90.50
2019-05-15T11:57:12.158Z,90.20
2019-05-15T11:59:45.213Z,90.40
2019-05-15T12:04:38.347Z,90.30
2019-05-15T12:07:08.562Z,90.40
2019-05-15T12:09:35.811Z,90.10
2019-05-15T12:12:03.703Z,91.00
2019-05-15T12:14:31.389Z,91.40
2019-05-15T12:17:06.918Z,91.20
2019-05-15T12:19:29.299Z,91.50
2019-05-15T12:21:59.793Z,91.70
2019-05-15T12:24:32.725Z,91.10
2019-05-15T12:26:56.312Z,91.40
2019-05-15T12:29:28.561Z,91.90
2019-05-15T12:31:58.786Z,92.40
2019-05-15T12:34:28.215Z,92.60
2019-05-15T12:36:58.056Z,92.00
2019-05-15T12:39:29.498Z,92.30
2019-05-15T13:01:50.630Z,92.80
2019-05-15T13:04:19.996Z,92.30
2019-05-15T13:07:10.103Z,92.50
2019-05-15T13:09:19.311Z,92.60
2019-05-15T13:11:48.511Z,92.90
2019-05-15T13:14:18.896Z,92.90
2019-05-15T13:16:48.049Z,92.70
2019-05-15T13:19:18.936Z,93.20
2019-05-15T13:21:51.403Z,92.60
2019-05-15T13:24:19.412Z,92.40
2019-05-15T13:26:47.675Z,92.60
2019-05-15T13:29:18.190Z,92.30
2019-05-15T13:31:47.777Z,92.70
2019-05-15T13:34:15.712Z,93.00
2019-05-15T13:36:43.425Z,92.90
2019-05-15T13:39:11.416Z,92.10
2019-05-15T13:41:39.061Z,92.80
2019-05-15T13:44:08.843Z,92.70
2019-05-15T13:46:38.115Z,92.70
2019-05-15T13:51:33.261Z,93.30
2019-05-15T13:54:01.030Z,93.00
2019-05-15T13:56:29.105Z,93.30
2019-05-15T13:58:58.712Z,92.80
2019-05-15T14:03:55.791Z,93.30
2019-05-15T14:06:23.435Z,93.00
2019-05-15T14:08:51.188Z,93.30
2019-05-15T14:11:21.729Z,93.30
2019-05-15T14:13:48.756Z,92.80
2019-05-15T14:16:19.071Z,93.20
2019-05-15T14:18:47.973Z,93.30
2019-05-15T14:21:15.547Z,93.10
2019-05-15T14:23:43.245Z,93.40
2019-05-15T14:26:22.379Z,93.70
2019-05-15T14:28:41.341Z,93.60
2019-05-15T14:31:09.866Z,93.80
2019-05-15T14:33:38.528Z,93.80
2019-05-15T14:36:08.319Z,93.90
2019-05-15T14:38:37.765Z,93.80
2019-05-15T14:41:05.975Z,94.20
2019-05-15T14:43:33.715Z,94.20
2019-05-15T14:46:01.652Z,94.70
2019-05-15T14:48:29.388Z,94.90
2019-05-15T14:50:58.369Z,94.50
2019-05-15T14:53:29.194Z,95.50
2019-05-15T14:55:55.859Z,94.70
2019-05-15T14:58:23.756Z,94.90
2019-05-15T15:00:51.680Z,94.90
2019-05-15T15:03:19.340Z,94.70
2019-05-15T15:05:49.259Z,95.30
2019-05-15T15:08:24.223Z,95.30
2019-05-15T15:10:46.412Z,95.00
2019-05-15T15:13:14.052Z,94.60
2019-05-15T15:15:42.413Z,95.30
2019-05-15T15:18:10.158Z,95.50
2019-05-15T15:20:38.220Z,94.90
2019-05-15T15:23:08.256Z,95.20
2019-05-15T15:25:35.829Z,95.00
2019-05-15T15:28:03.529Z,95.20
2019-05-15T15:30:31.291Z,94.80
2019-05-15T15:32:59.399Z,94.80
2019-05-15T15:35:28.911Z,95.00
2019-05-15T15:37:58.080Z,95.10
2019-05-15T15:40:28.246Z,95.20
2019-05-15T15:42:57.891Z,95.20
2019-05-15T15:45:25.147Z,94.70
2019-05-15T15:47:52.931Z,94.80
2019-05-15T15:50:22.407Z,94.80
2019-05-15T15:52:50.133Z,94.60
2019-05-15T15:55:18.439Z,94.60
2019-05-15T16:00:18.337Z,94.70
2019-05-15T16:02:48.220Z,94.70
2019-05-15T16:05:15.432Z,94.80
2019-05-15T16:07:43.641Z,94.90
2019-05-15T16:10:11.663Z,95.20
2019-05-15T16:12:39.393Z,95.30
2019-05-15T16:15:08.892Z,95.50
2019-05-15T16:17:38.529Z,95.00
2019-05-15T16:20:08.118Z,95.10
2019-05-15T16:22:37.929Z,94.90
2019-05-15T16:25:09.271Z,95.00
2019-05-15T16:27:38.155Z,94.80
2019-05-15T16:30:08.227Z,95.30
2019-05-15T16:32:35.499Z,94.80
2019-05-15T16:35:03.716Z,95.20
2019-05-15T16:37:31.360Z,95.00
2019-05-15T16:40:00.016Z,94.80
2019-05-15T16:42:28.647Z,94.80
2019-05-15T16:44:58.456Z,94.80
2019-05-15T16:47:27.973Z,95.00
2019-05-15T16:49:57.608Z,95.20
2019-05-15T16:52:24.856Z,95.50
2019-05-15T16:54:53.094Z,95.80
2019-05-15T16:57:20.751Z,95.60
2019-05-15T16:59:48.540Z,95.60
2019-05-15T17:02:18.634Z,95.60
2019-05-15T17:04:45.615Z,95.70
2019-05-15T17:07:13.745Z,95.90
2019-05-15T17:09:41.920Z,96.30
2019-05-15T17:12:09.651Z,95.60
2019-05-15T17:14:38.888Z,95.90
2019-05-15T17:17:07.984Z,95.70
2019-05-15T17:19:35.869Z,96.10
2019-05-15T17:22:03.633Z,96.00
2019-05-15T17:24:31.315Z,96.30
2019-05-15T17:26:59.770Z,96.20
2019-05-15T17:29:29.168Z,96.20
2019-05-15T17:31:57.371Z,96.10
2019-05-15T17:34:25.020Z,96.40
2019-05-15T17:36:52.852Z,96.50
2019-05-15T17:39:33.634Z,96.70
2019-05-15T17:41:50.898Z,96.50
2019-05-15T17:44:18.988Z,96.30
2019-05-15T17:46:48.851Z,96.20
2019-05-15T17:49:16.025Z,96.50
2019-05-15T17:51:43.758Z,96.40
2019-05-15T17:54:11.511Z,96.40
2019-05-15T17:56:39.383Z,96.50
2019-05-15T17:59:08.648Z,96.60
2019-05-15T18:04:08.237Z,96.60
2019-05-15T18:06:35.582Z,97.10
2019-05-15T18:09:04.979Z,96.80
2019-05-15T18:11:32.638Z,96.90
2019-05-15T18:14:00.285Z,96.70
2019-05-15T18:16:28.046Z,97.20
2019-05-15T18:18:55.696Z,97.00
2019-05-15T18:21:23.407Z,96.70
2019-05-15T18:23:51.427Z,96.70
2019-05-15T18:26:19.144Z,96.90
2019-05-15T18:28:48.946Z,96.60
2019-05-15T18:31:18.195Z,96.50
2019-05-15T18:33:53.388Z,96.80
2019-05-15T18:36:15.507Z,96.90
2019-05-15T18:38:43.344Z,96.90
2019-05-15T18:41:10.984Z,97.00
2019-05-15T18:43:38.625Z,97.20
2019-05-15T18:46:08.870Z,97.00
2019-05-15T18:48:38.001Z,96.70
2019-05-15T18:51:07.936Z,97.00
2019-05-15T18:53:38.840Z,96.90
2019-05-15T18:56:08.946Z,97.30
2019-05-15T18:58:39.370Z,97.60
2019-05-15T19:01:09.376Z,97.70
2019-05-15T19:03:38.461Z,97.80
2019-05-15T19:06:06.094Z,97.90
2019-05-15T19:08:33.805Z,97.70
2019-05-15T19:11:01.684Z,97.60
2019-05-15T19:13:29.343Z,97.70
2019-05-15T19:15:58.009Z,98.10
2019-05-15T19:18:27.933Z,97.80
2019-05-15T19:20:58.424Z,97.60
2019-05-15T19:23:25.836Z,97.90
2019-05-15T19:25:53.628Z,97.80
2019-05-15T19:28:21.562Z,98.00
2019-05-15T19:30:49.216Z,98.00
2019-05-15T19:33:22.515Z,97.90
2019-05-15T19:35:47.671Z,98.10
2019-05-15T19:38:15.467Z,98.40
2019-05-15T19:40:44.123Z,98.10
2019-05-15T19:43:11.787Z,98.30
2019-05-15T19:45:41.493Z,98.20
2019-05-15T19:48:09.210Z,98.00
2019-05-15T19:50:36.979Z,98.40
2019-05-15T19:53:04.619Z,98.00
2019-05-15T19:55:32.547Z,97.90
2019-05-15T19:58:00.200Z,98.00
2019-05-15T20:00:28.465Z,98.10
2019-05-15T20:02:58.138Z,98.10
2019-05-15T20:05:26.172Z,97.70
2019-05-15T20:07:53.858Z,98.10
2019-05-15T20:10:21.571Z,98.30
2019-05-15T20:12:49.280Z,98.50
2019-05-15T20:15:19.011Z,98.20
2019-05-15T20:17:47.883Z,98.40
2019-05-15T20:20:18.649Z,98.70
2019-05-15T20:22:46.023Z,98.40
2019-05-15T20:25:13.779Z,98.00
2019-05-15T20:27:41.447Z,98.20
2019-05-15T20:30:09.733Z,98.20
2019-05-15T20:35:08.562Z,98.30
2019-05-15T20:37:38.902Z,98.60
2019-05-15T20:40:09.084Z,98.50
2019-05-15T20:42:38.067Z,98.50
2019-05-15T20:45:11.283Z,98.40
2019-05-15T20:47:38.576Z,98.70
2019-05-15T20:50:08.303Z,98.70
2019-05-15T20:52:35.576Z,98.80
2019-05-15T20:55:04.199Z,98.80
2019-05-15T20:57:32.136Z,98.70
2019-05-15T20:59:59.891Z,98.80
2019-05-15T21:02:29.004Z,98.70
2019-05-15T21:04:58.318Z,98.50
2019-05-15T21:07:35.755Z,98.50
2019-05-15T21:09:55.705Z,98.40
2019-05-15T21:12:26.237Z,98.70
2019-05-15T21:14:53.071Z,98.70
2019-05-15T21:17:20.840Z,98.80
2019-05-15T21:19:49.005Z,98.80
2019-05-15T21:22:18.084Z,98.90
2019-05-15T21:24:46.035Z,98.80
2019-05-15T21:27:13.686Z,98.80
2019-05-15T21:29:41.411Z,98.80
2019-05-15T21:32:09.112Z,99.10
2019-05-15T21:34:41.218Z,99.00
2019-05-15T21:37:08.546Z,98.60
2019-05-15T21:39:39.076Z,98.90
2019-05-15T21:42:08.708Z,99.10
2019-05-15T21:44:38.124Z,99.40
2019-05-15T21:47:05.177Z,99.40
2019-05-15T21:49:33.172Z,99.20
2019-05-15T21:52:01.504Z,99.30
2019-05-15T21:54:29.218Z,99.20
2019-05-15T21:57:12.974Z,99.20
2019-05-15T21:59:27.882Z,99.10
2019-05-15T22:01:55.751Z,98.90
2019-05-15T22:04:23.625Z,99.20
2019-05-15T22:06:51.447Z,98.90
2019-05-15T22:09:20.870Z,99.10
2019-05-15T22:11:49.695Z,98.90
2019-05-15T22:14:18.200Z,99.10
2019-05-15T22:16:46.483Z,99.40
2019-05-15T22:19:14.410Z,99.20
2019-05-15T22:21:42.318Z,99.40
2019-05-15T22:24:10.102Z,99.30
2019-05-15T22:26:38.226Z,99.40
2019-05-15T22:29:06.282Z,99.70
2019-05-15T22:34:03.293Z,99.00
2019-05-15T22:36:31.252Z,98.90
2019-05-15T22:38:59.474Z,99.20
2019-05-15T22:41:28.469Z,99.50
2019-05-15T22:43:56.639Z,99.40
2019-05-15T22:46:24.743Z,99.30
2019-05-15T22:48:52.820Z,99.30
2019-05-15T22:51:20.824Z,99.50
2019-05-15T22:53:49.014Z,99.10
2019-05-15T22:56:18.174Z,99.10
2019-05-15T22:58:48.060Z,99.30
2019-05-15T23:01:15.583Z,99.30
2019-05-15T23:03:43.361Z,99.20
2019-05-15T23:06:11.501Z,98.90
2019-05-15T23:08:39.312Z,99.00
2019-05-15T23:11:09.494Z,98.20
2019-05-15T23:13:38.811Z,98.60
2019-05-15T23:16:06.126Z,98.70
2019-05-15T23:18:33.921Z,99.00
2019-05-15T23:21:01.727Z,98.60
2019-05-15T23:23:29.873Z,98.80
2019-05-15T23:25:57.969Z,98.20
2019-05-15T23:28:28.056Z,98.40
2019-05-15T23:30:57.589Z,98.50
2019-05-15T23:33:25.008Z,98.60
2019-05-15T23:35:52.704Z,98.50
2019-05-15T23:38:20.396Z,98.70
2019-05-15T23:40:48.431Z,98.70
2019-05-15T23:43:18.769Z,98.60
2019-05-15T23:45:45.665Z,98.80
2019-05-15T23:48:13.309Z,98.70
2019-05-15T23:50:41.024Z,98.80
2019-05-15T23:53:09.095Z,98.90
2019-05-15T23:55:36.755Z,99.00
2019-05-15T23:58:04.423Z,98.90
